Wheeler, Mississippi
Current Conditions -  °F | °C
As of 9:53 PM on Saturday 24 Jan 2015 (Local Time) from KTUP Reporting Station
Clear Clear  
Wind Chill:   Ceiling: Unl
Heat Index:   Visibility: 10mi
Dew Point: -1°   Wind: 7mph
Humidity: 73%   Direction: 180°S
Pressure: 29.97"   Gusts: NA
Location:  34.58°N, 88.61°W
Report Text: KTUP 250353Z 18006KT 10SM CLR 03/M01 A2997 RMK AO2 SLP149 T00331011 $
Loading
Personal Weather Stations






























Interactive Weather Map New forecast layout! Learn more

10-Day Weather Forecast

Advertisements
Track Severe Weather on mobile